sensor_id;sensor_type;location;lat;lon;timestamp;pressure;altitude;pressure_sealevel;temperature;humidity
44825;BME280;30542;47.928;2.138;2023-08-31T00:04:17;100080.66;;;21.75;51.63
44825;BME280;30542;47.928;2.138;2023-08-31T00:09:17;100075.28;;;21.75;51.69
44825;BME280;30542;47.928;2.138;2023-08-31T00:14:19;100079.84;;;21.74;51.82
44825;BME280;30542;47.928;2.138;2023-08-31T00:19:19;100080.09;;;21.73;51.80
44825;BME280;30542;47.928;2.138;2023-08-31T00:24:19;100074.25;;;21.71;51.74
44825;BME280;30542;47.928;2.138;2023-08-31T00:29:21;100086.31;;;21.73;51.80
44825;BME280;30542;47.928;2.138;2023-08-31T00:34:23;100090.84;;;21.73;51.80
44825;BME280;30542;47.928;2.138;2023-08-31T00:39:23;100086.56;;;21.72;51.93
44825;BME280;30542;47.928;2.138;2023-08-31T00:44:24;100087.66;;;21.71;51.80
44825;BME280;30542;47.928;2.138;2023-08-31T00:49:24;100091.66;;;21.73;51.81
44825;BME280;30542;47.928;2.138;2023-08-31T00:54:24;100093.50;;;21.73;51.92
44825;BME280;30542;47.928;2.138;2023-08-31T00:59:25;100086.56;;;21.72;51.80
44825;BME280;30542;47.928;2.138;2023-08-31T01:04:34;100078.53;;;21.72;51.76
44825;BME280;30542;47.928;2.138;2023-08-31T01:09:54;100082.28;;;21.71;51.79
44825;BME280;30542;47.928;2.138;2023-08-31T01:15:03;100069.97;;;21.70;51.70
44825;BME280;30542;47.928;2.138;2023-08-31T01:20:11;100080.69;;;21.70;51.90
44825;BME280;30542;47.928;2.138;2023-08-31T01:25:13;100059.25;;;21.65;51.77
44825;BME280;30542;47.928;2.138;2023-08-31T01:30:13;100069.44;;;21.68;51.97
44825;BME280;30542;47.928;2.138;2023-08-31T01:35:16;100078.28;;;21.68;51.92
44825;BME280;30542;47.928;2.138;2023-08-31T01:40:21;100084.44;;;21.69;51.82
44825;BME280;30542;47.928;2.138;2023-08-31T01:45:24;100089.78;;;21.69;51.91
44825;BME280;30542;47.928;2.138;2023-08-31T01:50:25;100097.03;;;21.68;51.79
44825;BME280;30542;47.928;2.138;2023-08-31T01:55:25;100098.13;;;21.67;51.85
44825;BME280;30542;47.928;2.138;2023-08-31T02:00:26;100096.25;;;21.68;51.85
44825;BME280;30542;47.928;2.138;2023-08-31T02:05:27;100093.56;;;21.68;51.79
44825;BME280;30542;47.928;2.138;2023-08-31T02:10:27;100083.94;;;21.67;51.82
44825;BME280;30542;47.928;2.138;2023-08-31T02:15:29;100094.34;;;21.68;51.76
44825;BME280;30542;47.928;2.138;2023-08-31T02:20:30;100092.47;;;21.69;51.77
44825;BME280;30542;47.928;2.138;2023-08-31T02:25:30;100077.47;;;21.68;51.77
44825;BME280;30542;47.928;2.138;2023-08-31T02:30:31;100079.34;;;21.67;51.76
44825;BME280;30542;47.928;2.138;2023-08-31T02:35:32;100076.97;;;21.66;51.90
44825;BME280;30542;47.928;2.138;2023-08-31T02:40:34;100080.72;;;21.65;51.85
44825;BME280;30542;47.928;2.138;2023-08-31T02:45:34;100075.34;;;21.65;51.95
44825;BME280;30542;47.928;2.138;2023-08-31T02:50:35;100065.72;;;21.64;51.79
44825;BME280;30542;47.928;2.138;2023-08-31T02:55:35;100073.19;;;21.67;52.03
44825;BME280;30542;47.928;2.138;2023-08-31T03:00:35;100082.34;;;21.66;52.04
44825;BME280;30542;47.928;2.138;2023-08-31T03:05:39;100086.38;;;21.63;52.10
44825;BME280;30542;47.928;2.138;2023-08-31T03:10:40;100081.81;;;21.64;51.84
44825;BME280;30542;47.928;2.138;2023-08-31T03:15:40;100096.78;;;21.65;51.85
44825;BME280;30542;47.928;2.138;2023-08-31T03:20:41;100087.16;;;21.64;51.94
44825;BME280;30542;47.928;2.138;2023-08-31T03:25:41;100093.59;;;21.63;51.92
44825;BME280;30542;47.928;2.138;2023-08-31T03:30:41;100097.88;;;21.64;51.88
44825;BME280;30542;47.928;2.138;2023-08-31T03:35:45;100107.81;;;21.63;51.91
44825;BME280;30542;47.928;2.138;2023-08-31T03:40:54;100074.91;;;21.57;51.90
44825;BME280;30542;47.928;2.138;2023-08-31T03:45:56;100072.47;;;21.61;51.86
44825;BME280;30542;47.928;2.138;2023-08-31T03:50:56;100085.03;;;21.60;51.94
44825;BME280;30542;47.928;2.138;2023-08-31T03:55:57;100080.75;;;21.59;51.62
44825;BME280;30542;47.928;2.138;2023-08-31T04:00:57;100086.13;;;21.59;52.01
44825;BME280;30542;47.928;2.138;2023-08-31T04:05:58;100094.94;;;21.60;51.82
44825;BME280;30542;47.928;2.138;2023-08-31T04:10:58;100082.63;;;21.59;51.80
44825;BME280;30542;47.928;2.138;2023-08-31T04:15:58;100092.03;;;21.56;51.96
44825;BME280;30542;47.928;2.138;2023-08-31T04:20:59;100093.38;;;21.59;51.87
44825;BME280;30542;47.928;2.138;2023-08-31T04:26:10;100084.56;;;21.53;51.84
44825;BME280;30542;47.928;2.138;2023-08-31T04:31:10;100087.25;;;21.53;51.88
44825;BME280;30542;47.928;2.138;2023-08-31T04:36:11;100094.72;;;21.56;51.87
44825;BME280;30542;47.928;2.138;2023-08-31T04:41:11;100100.06;;;21.56;52.01
44825;BME280;30542;47.928;2.138;2023-08-31T04:46:12;100101.16;;;21.55;52.01
44825;BME280;30542;47.928;2.138;2023-08-31T04:51:31;100107.31;;;21.56;51.91
44825;BME280;30542;47.928;2.138;2023-08-31T04:56:34;100106.50;;;21.55;51.77
44825;BME280;30542;47.928;2.138;2023-08-31T05:01:35;100105.72;;;21.55;51.83
44825;BME280;30542;47.928;2.138;2023-08-31T05:06:35;100123.69;;;21.54;51.94
44825;BME280;30542;47.928;2.138;2023-08-31T05:11:35;100122.88;;;21.54;52.07
44825;BME280;30542;47.928;2.138;2023-08-31T05:16:36;100129.03;;;21.54;51.67
44825;BME280;30542;47.928;2.138;2023-08-31T05:21:36;100137.88;;;21.55;51.74
44825;BME280;30542;47.928;2.138;2023-08-31T05:26:36;100132.56;;;21.50;51.31
44825;BME280;30542;47.928;2.138;2023-08-31T05:31:37;100150.47;;;21.54;50.87
44825;BME280;30542;47.928;2.138;2023-08-31T05:36:37;100140.06;;;21.53;50.67
44825;BME280;30542;47.928;2.138;2023-08-31T05:41:40;100144.88;;;21.51;50.35
44825;BME280;30542;47.928;2.138;2023-08-31T05:46:41;100152.41;;;21.49;50.12
44825;BME280;30542;47.928;2.138;2023-08-31T05:51:41;100142.47;;;21.49;50.32
44825;BME280;30542;47.928;2.138;2023-08-31T05:56:41;100155.34;;;21.52;50.40
44825;BME280;30542;47.928;2.138;2023-08-31T06:01:43;100159.66;;;21.48;50.72
44825;BME280;30542;47.928;2.138;2023-08-31T06:06:43;100167.09;;;21.51;50.46
44825;BME280;30542;47.928;2.138;2023-08-31T06:11:44;100168.72;;;21.52;50.65
44825;BME280;30542;47.928;2.138;2023-08-31T06:16:44;100169.78;;;21.51;50.76
44825;BME280;30542;47.928;2.138;2023-08-31T06:21:45;100174.88;;;21.53;50.81
44825;BME280;30542;47.928;2.138;2023-08-31T06:26:45;100179.16;;;21.54;50.51
44825;BME280;30542;47.928;2.138;2023-08-31T06:31:45;100179.97;;;21.54;50.78
44825;BME280;30542;47.928;2.138;2023-08-31T06:36:46;100184.25;;;21.55;50.88
44825;BME280;30542;47.928;2.138;2023-08-31T06:41:46;100188.50;;;21.56;51.21
44825;BME280;30542;47.928;2.138;2023-08-31T06:46:47;100183.69;;;21.58;51.04
44825;BME280;30542;47.928;2.138;2023-08-31T06:51:47;100172.72;;;21.55;51.50
44825;BME280;30542;47.928;2.138;2023-08-31T06:56:48;100186.38;;;21.58;51.46
44825;BME280;30542;47.928;2.138;2023-08-31T07:01:48;100192.81;;;21.57;51.75
44825;BME280;30542;47.928;2.138;2023-08-31T07:06:49;100198.97;;;21.58;51.40
44825;BME280;30542;47.928;2.138;2023-08-31T07:11:49;100190.94;;;21.58;51.62
44825;BME280;30542;47.928;2.138;2023-08-31T07:16:49;100182.09;;;21.57;51.55
44825;BME280;30542;47.928;2.138;2023-08-31T07:21:50;100191.19;;;21.56;51.76
44825;BME280;30542;47.928;2.138;2023-08-31T07:26:50;100204.09;;;21.54;51.59
44825;BME280;30542;47.928;2.138;2023-08-31T07:31:51;100217.19;;;21.56;51.83
44825;BME280;30542;47.928;2.138;2023-08-31T07:36:51;100219.06;;;21.55;51.72
44825;BME280;30542;47.928;2.138;2023-08-31T07:41:53;100234.91;;;21.57;51.78
44825;BME280;30542;47.928;2.138;2023-08-31T07:46:54;100242.66;;;21.58;51.35
44825;BME280;30542;47.928;2.138;2023-08-31T07:51:55;100238.63;;;21.61;52.14
44825;BME280;30542;47.928;2.138;2023-08-31T07:56:55;100243.69;;;21.63;52.00
44825;BME280;30542;47.928;2.138;2023-08-31T08:01:56;100232.44;;;21.66;52.56
44825;BME280;30542;47.928;2.138;2023-08-31T08:06:56;100215.31;;;21.62;52.88
44825;BME280;30542;47.928;2.138;2023-08-31T08:11:56;100229.19;;;21.69;53.14
44825;BME280;30542;47.928;2.138;2023-08-31T08:16:56;100220.09;;;21.70;53.22
44825;BME280;30542;47.928;2.138;2023-08-31T08:21:57;100218.19;;;21.70;53.56
44825;BME280;30542;47.928;2.138;2023-08-31T08:26:57;100226.75;;;21.72;53.19
44825;BME280;30542;47.928;2.138;2023-08-31T08:31:58;100224.06;;;21.72;53.36
44825;BME280;30542;47.928;2.138;2023-08-31T08:36:58;100225.69;;;21.68;53.01
44825;BME280;30542;47.928;2.138;2023-08-31T08:41:59;100251.16;;;21.71;53.09
44825;BME280;30542;47.928;2.138;2023-08-31T08:47:00;100247.69;;;21.70;53.00
44825;BME280;30542;47.928;2.138;2023-08-31T08:52:00;100258.41;;;21.70;52.81
44825;BME280;30542;47.928;2.138;2023-08-31T08:57:01;100264.28;;;21.72;53.08
44825;BME280;30542;47.928;2.138;2023-08-31T09:02:03;100256.53;;;21.71;53.12
44825;BME280;30542;47.928;2.138;2023-08-31T09:07:04;100269.66;;;21.72;53.28
44825;BME280;30542;47.928;2.138;2023-08-31T09:12:07;100251.19;;;21.66;52.95
44825;BME280;30542;47.928;2.138;2023-08-31T09:17:10;100261.59;;;21.72;53.00
44825;BME280;30542;47.928;2.138;2023-08-31T09:22:11;100245.50;;;21.72;52.98
44825;BME280;30542;47.928;2.138;2023-08-31T09:27:11;100239.91;;;21.74;52.89
44825;BME280;30542;47.928;2.138;2023-08-31T09:32:16;100251.13;;;21.76;52.69
44825;BME280;30542;47.928;2.138;2023-08-31T09:37:17;100249.00;;;21.78;52.80
44825;BME280;30542;47.928;2.138;2023-08-31T09:42:17;100237.69;;;21.81;52.71
44825;BME280;30542;47.928;2.138;2023-08-31T09:47:19;100236.09;;;21.80;52.68
44825;BME280;30542;47.928;2.138;2023-08-31T09:52:20;100228.00;;;21.85;52.32
44825;BME280;30542;47.928;2.138;2023-08-31T09:57:21;100221.31;;;21.88;52.42
44825;BME280;30542;47.928;2.138;2023-08-31T10:02:24;100224.22;;;21.91;52.14
44825;BME280;30542;47.928;2.138;2023-08-31T10:07:25;100210.53;;;21.93;52.50
44825;BME280;30542;47.928;2.138;2023-08-31T10:12:27;100220.50;;;21.87;52.27
44825;BME280;30542;47.928;2.138;2023-08-31T10:17:27;100205.97;;;21.93;52.31
44825;BME280;30542;47.928;2.138;2023-08-31T10:22:29;100206.75;;;21.94;52.19
44825;BME280;30542;47.928;2.138;2023-08-31T10:27:40;100201.41;;;21.94;52.33
44825;BME280;30542;47.928;2.138;2023-08-31T10:32:41;100212.13;;;21.94;52.13
44825;BME280;30542;47.928;2.138;2023-08-31T10:37:41;100203.31;;;21.88;52.25
44825;BME280;30542;47.928;2.138;2023-08-31T10:42:45;100200.09;;;21.91;52.09
44825;BME280;30542;47.928;2.138;2023-08-31T10:47:47;100189.38;;;21.91;52.21
44825;BME280;30542;47.928;2.138;2023-08-31T10:52:47;100190.16;;;21.92;52.11
44825;BME280;30542;47.928;2.138;2023-08-31T10:57:48;100204.38;;;21.92;52.01
44825;BME280;30542;47.928;2.138;2023-08-31T11:02:48;100187.50;;;21.92;51.97
44825;BME280;30542;47.928;2.138;2023-08-31T11:07:50;100182.91;;;21.92;51.86
44825;BME280;30542;47.928;2.138;2023-08-31T11:12:54;100188.28;;;21.92;52.06
44825;BME280;30542;47.928;2.138;2023-08-31T11:17:55;100177.56;;;21.92;51.94
44825;BME280;30542;47.928;2.138;2023-08-31T11:22:56;100169.81;;;21.91;52.12
44825;BME280;30542;47.928;2.138;2023-08-31T11:27:58;100168.72;;;21.92;52.14
44825;BME280;30542;47.928;2.138;2023-08-31T11:33:04;100170.31;;;21.93;52.07
44825;BME280;30542;47.928;2.138;2023-08-31T11:38:05;100163.06;;;21.93;51.97
44825;BME280;30542;47.928;2.138;2023-08-31T11:43:05;100160.66;;;21.92;52.16
44825;BME280;30542;47.928;2.138;2023-08-31T11:48:09;100155.31;;;21.92;51.97
44825;BME280;30542;47.928;2.138;2023-08-31T11:53:10;100161.47;;;21.92;52.28
44825;BME280;30542;47.928;2.138;2023-08-31T11:58:10;100170.84;;;21.95;52.58
44825;BME280;30542;47.928;2.138;2023-08-31T12:03:10;100157.16;;;21.96;52.99
44825;BME280;30542;47.928;2.138;2023-08-31T12:08:11;100159.53;;;21.98;53.11
44825;BME280;30542;47.928;2.138;2023-08-31T12:13:11;100158.19;;;22.00;53.00
44825;BME280;30542;47.928;2.138;2023-08-31T12:18:15;100160.56;;;22.02;53.16
44825;BME280;30542;47.928;2.138;2023-08-31T12:23:15;100157.69;;;21.98;53.26
44825;BME280;30542;47.928;2.138;2023-08-31T12:28:20;100150.13;;;22.00;53.35
44825;BME280;30542;47.928;2.138;2023-08-31T12:33:21;100156.28;;;22.01;53.33
44825;BME280;30542;47.928;2.138;2023-08-31T12:38:21;100163.53;;;22.00;53.36
44825;BME280;30542;47.928;2.138;2023-08-31T12:43:22;100164.09;;;21.97;53.24
44825;BME280;30542;47.928;2.138;2023-08-31T12:48:22;100159.31;;;21.94;53.55
44825;BME280;30542;47.928;2.138;2023-08-31T12:53:23;100157.16;;;21.96;53.72
44825;BME280;30542;47.928;2.138;2023-08-31T12:58:23;100158.75;;;21.97;53.53
44825;BME280;30542;47.928;2.138;2023-08-31T13:03:24;100154.47;;;21.96;53.58
44825;BME280;30542;47.928;2.138;2023-08-31T13:08:24;100149.63;;;21.98;53.68
44825;BME280;30542;47.928;2.138;2023-08-31T13:13:25;100140.50;;;21.99;53.81
44825;BME280;30542;47.928;2.138;2023-08-31T13:18:25;100128.72;;;21.95;53.77
44825;BME280;30542;47.928;2.138;2023-08-31T13:23:25;100135.13;;;21.99;53.66
44825;BME280;30542;47.928;2.138;2023-08-31T13:28:26;100129.78;;;21.99;54.08
44825;BME280;30542;47.928;2.138;2023-08-31T13:33:27;100112.47;;;21.87;54.00
44825;BME280;30542;47.928;2.138;2023-08-31T13:38:30;100132.97;;;22.01;54.51
44825;BME280;30542;47.928;2.138;2023-08-31T13:43:31;100134.03;;;22.00;53.86
44825;BME280;30542;47.928;2.138;2023-08-31T13:48:31;100132.16;;;22.01;53.85
44825;BME280;30542;47.928;2.138;2023-08-31T13:53:31;100138.31;;;22.01;54.15
44825;BME280;30542;47.928;2.138;2023-08-31T13:58:32;100127.59;;;22.01;54.39
44825;BME280;30542;47.928;2.138;2023-08-31T14:03:32;100127.03;;;22.04;54.19
44825;BME280;30542;47.928;2.138;2023-08-31T14:08:32;100127.03;;;22.04;54.33
44825;BME280;30542;47.928;2.138;2023-08-31T14:13:33;100117.91;;;22.05;54.17
44825;BME280;30542;47.928;2.138;2023-08-31T14:18:33;100107.72;;;22.07;54.24
44825;BME280;30542;47.928;2.138;2023-08-31T14:23:33;100106.91;;;22.07;54.07
44825;BME280;30542;47.928;2.138;2023-08-31T14:28:34;100105.88;;;22.03;54.51
44825;BME280;30542;47.928;2.138;2023-08-31T14:33:34;100100.78;;;22.01;54.34
44825;BME280;30542;47.928;2.138;2023-08-31T14:38:34;100106.66;;;22.03;54.32
44825;BME280;30542;47.928;2.138;2023-08-31T14:43:34;100109.34;;;22.03;54.76
44825;BME280;30542;47.928;2.138;2023-08-31T14:48:35;100113.13;;;22.02;54.76
44825;BME280;30542;47.928;2.138;2023-08-31T14:53:35;100098.88;;;22.02;54.75
44825;BME280;30542;47.928;2.138;2023-08-31T14:58:36;100103.19;;;22.03;54.79
44825;BME280;30542;47.928;2.138;2023-08-31T15:03:36;100106.94;;;22.02;55.01
44825;BME280;30542;47.928;2.138;2023-08-31T15:08:39;100098.88;;;22.02;55.24
44825;BME280;30542;47.928;2.138;2023-08-31T15:13:40;100082.00;;;22.01;55.51
44825;BME280;30542;47.928;2.138;2023-08-31T15:18:40;100092.00;;;21.96;55.50
44825;BME280;30542;47.928;2.138;2023-08-31T15:23:41;100093.34;;;21.93;55.78
44825;BME280;30542;47.928;2.138;2023-08-31T15:28:41;100091.94;;;22.01;55.51
44825;BME280;30542;47.928;2.138;2023-08-31T15:33:42;100095.94;;;22.03;55.53
44825;BME280;30542;47.928;2.138;2023-08-31T15:38:43;100099.41;;;22.04;55.82
44825;BME280;30542;47.928;2.138;2023-08-31T15:43:44;100102.59;;;22.06;56.55
44825;BME280;30542;47.928;2.138;2023-08-31T15:48:44;100105.28;;;22.06;58.37
44825;BME280;30542;47.928;2.138;2023-08-31T15:53:44;100097.44;;;21.51;63.44
44825;BME280;30542;47.928;2.138;2023-08-31T15:58:45;100097.97;;;21.04;65.95
44825;BME280;30542;47.928;2.138;2023-08-31T16:03:45;100099.97;;;20.78;67.67
44825;BME280;30542;47.928;2.138;2023-08-31T16:08:46;100102.91;;;20.76;67.82
44825;BME280;30542;47.928;2.138;2023-08-31T16:13:47;100098.22;;;21.07;67.04
44825;BME280;30542;47.928;2.138;2023-08-31T16:18:47;100095.94;;;21.30;66.72
44825;BME280;30542;47.928;2.138;2023-08-31T16:23:49;100093.56;;;21.28;67.18
44825;BME280;30542;47.928;2.138;2023-08-31T16:28:49;100097.19;;;21.48;66.52
44825;BME280;30542;47.928;2.138;2023-08-31T16:33:50;100095.44;;;21.67;65.60
44825;BME280;30542;47.928;2.138;2023-08-31T16:38:50;100100.16;;;21.80;64.18
44825;BME280;30542;47.928;2.138;2023-08-31T16:43:50;100094.47;;;21.87;62.88
44825;BME280;30542;47.928;2.138;2023-08-31T16:48:53;100086.63;;;21.96;62.81
44825;BME280;30542;47.928;2.138;2023-08-31T16:53:53;100082.84;;;21.97;61.39
44825;BME280;30542;47.928;2.138;2023-08-31T16:58:54;100080.34;;;22.05;60.89
44825;BME280;30542;47.928;2.138;2023-08-31T17:03:56;100086.75;;;22.09;60.51
44825;BME280;30542;47.928;2.138;2023-08-31T17:08:56;100089.44;;;22.15;60.23
44825;BME280;30542;47.928;2.138;2023-08-31T17:13:57;100081.88;;;22.17;59.81
44825;BME280;30542;47.928;2.138;2023-08-31T17:18:57;100069.31;;;22.12;59.84
44825;BME280;30542;47.928;2.138;2023-08-31T17:23:58;100074.06;;;22.20;59.75
44825;BME280;30542;47.928;2.138;2023-08-31T17:28:58;100075.97;;;22.20;59.13
44825;BME280;30542;47.928;2.138;2023-08-31T17:33:58;100078.34;;;22.21;59.10
44825;BME280;30542;47.928;2.138;2023-08-31T17:38:59;100087.50;;;22.20;58.74
44825;BME280;30542;47.928;2.138;2023-08-31T17:43:59;100089.09;;;22.21;58.64
44825;BME280;30542;47.928;2.138;2023-08-31T17:48:59;100089.09;;;22.21;58.29
44825;BME280;30542;47.928;2.138;2023-08-31T17:54:00;100079.94;;;22.22;58.54
44825;BME280;30542;47.928;2.138;2023-08-31T17:59:00;100087.72;;;22.24;58.19
44825;BME280;30542;47.928;2.138;2023-08-31T18:04:01;100098.47;;;22.24;58.18
44825;BME280;30542;47.928;2.138;2023-08-31T18:09:03;100099.25;;;22.24;58.12
44825;BME280;30542;47.928;2.138;2023-08-31T18:14:06;100103.53;;;22.25;58.09
44825;BME280;30542;47.928;2.138;2023-08-31T18:19:07;100102.44;;;22.26;57.93
44825;BME280;30542;47.928;2.138;2023-08-31T18:24:07;100105.41;;;22.25;58.08
44825;BME280;30542;47.928;2.138;2023-08-31T18:29:08;100108.59;;;22.27;57.68
44825;BME280;30542;47.928;2.138;2023-08-31T18:34:08;100118.53;;;22.26;57.79
44825;BME280;30542;47.928;2.138;2023-08-31T18:39:09;100123.09;;;22.26;57.84
44825;BME280;30542;47.928;2.138;2023-08-31T18:44:09;100125.78;;;22.26;57.79
44825;BME280;30542;47.928;2.138;2023-08-31T18:49:10;100126.88;;;22.25;57.82
44825;BME280;30542;47.928;2.138;2023-08-31T18:54:10;100136.53;;;22.26;57.90
44825;BME280;30542;47.928;2.138;2023-08-31T18:59:10;100133.84;;;22.26;57.55
44825;BME280;30542;47.928;2.138;2023-08-31T19:04:11;100148.34;;;22.25;57.73
44825;BME280;30542;47.928;2.138;2023-08-31T19:09:11;100156.09;;;22.26;57.79
44825;BME280;30542;47.928;2.138;2023-08-31T19:14:11;100149.94;;;22.26;57.62
44825;BME280;30542;47.928;2.138;2023-08-31T19:19:12;100149.44;;;22.24;57.59
44825;BME280;30542;47.928;2.138;2023-08-31T19:24:12;100159.63;;;22.22;57.59
44825;BME280;30542;47.928;2.138;2023-08-31T19:29:12;100163.69;;;22.19;57.63
44825;BME280;30542;47.928;2.138;2023-08-31T19:34:13;100169.31;;;22.18;57.46
44825;BME280;30542;47.928;2.138;2023-08-31T19:39:13;100176.56;;;22.17;57.55
44825;BME280;30542;47.928;2.138;2023-08-31T19:44:13;100198.03;;;22.17;57.80
44825;BME280;30542;47.928;2.138;2023-08-31T19:49:14;100194.84;;;22.15;57.73
44825;BME280;30542;47.928;2.138;2023-08-31T19:54:15;100169.72;;;22.01;57.42
44825;BME280;30542;47.928;2.138;2023-08-31T19:59:15;100194.56;;;22.17;57.52
44825;BME280;30542;47.928;2.138;2023-08-31T20:04:17;100198.34;;;22.16;57.24
44825;BME280;30542;47.928;2.138;2023-08-31T20:09:17;100205.84;;;22.14;57.39
44825;BME280;30542;47.928;2.138;2023-08-31T20:14:18;100209.84;;;22.16;57.42
44825;BME280;30542;47.928;2.138;2023-08-31T20:19:18;100199.94;;;22.17;57.24
44825;BME280;30542;47.928;2.138;2023-08-31T20:24:19;100202.31;;;22.18;57.07
44825;BME280;30542;47.928;2.138;2023-08-31T20:29:19;100195.34;;;22.17;57.24
44825;BME280;30542;47.928;2.138;2023-08-31T20:34:20;100194.56;;;22.17;57.18
44825;BME280;30542;47.928;2.138;2023-08-31T20:39:20;100192.44;;;22.14;57.23
44825;BME280;30542;47.928;2.138;2023-08-31T20:49:22;100191.38;;;22.15;57.19
44825;BME280;30542;47.928;2.138;2023-08-31T20:54:22;100201.81;;;22.16;57.21
44825;BME280;30542;47.928;2.138;2023-08-31T20:59:23;100197.78;;;22.14;57.12
44825;BME280;30542;47.928;2.138;2023-08-31T21:04:23;100208.78;;;22.17;57.12
44825;BME280;30542;47.928;2.138;2023-08-31T21:09:23;100195.66;;;22.11;57.09
44825;BME280;30542;47.928;2.138;2023-08-31T21:14:24;100201.53;;;22.18;57.10
44825;BME280;30542;47.928;2.138;2023-08-31T21:19:24;100200.72;;;22.17;56.94
44825;BME280;30542;47.928;2.138;2023-08-31T21:29:25;100197.25;;;22.17;56.98
44825;BME280;30542;47.928;2.138;2023-08-31T21:34:25;100191.38;;;22.15;56.84
44825;BME280;30542;47.928;2.138;2023-08-31T21:39:26;100202.09;;;22.15;56.90
44825;BME280;30542;47.928;2.138;2023-08-31T21:44:27;100203.16;;;22.14;56.97
44825;BME280;30542;47.928;2.138;2023-08-31T21:54:27;100209.84;;;22.16;56.93
44825;BME280;30542;47.928;2.138;2023-08-31T21:59:28;100205.03;;;22.13;56.85
44825;BME280;30542;47.928;2.138;2023-08-31T22:04:28;100207.72;;;22.13;56.83
44825;BME280;30542;47.928;2.138;2023-08-31T22:09:28;100197.00;;;22.13;56.70
44825;BME280;30542;47.928;2.138;2023-08-31T22:14:29;100198.88;;;22.13;56.81
44825;BME280;30542;47.928;2.138;2023-08-31T22:19:29;100187.09;;;22.08;56.79
44825;BME280;30542;47.928;2.138;2023-08-31T22:24:30;100201.56;;;22.13;56.77
44825;BME280;30542;47.928;2.138;2023-08-31T22:29:30;100205.84;;;22.14;56.76
44825;BME280;30542;47.928;2.138;2023-08-31T22:34:31;100205.84;;;22.14;56.77
44825;BME280;30542;47.928;2.138;2023-08-31T22:39:31;100197.81;;;22.08;56.50
44825;BME280;30542;47.928;2.138;2023-08-31T22:44:31;100204.25;;;22.13;56.65
44825;BME280;30542;47.928;2.138;2023-08-31T22:49:32;100201.81;;;22.11;56.60
44825;BME280;30542;47.928;2.138;2023-08-31T22:54:32;100206.41;;;22.11;56.61
44825;BME280;30542;47.928;2.138;2023-08-31T22:59:33;100200.22;;;22.10;56.55
44825;BME280;30542;47.928;2.138;2023-08-31T23:04:33;100199.16;;;22.11;56.80
44825;BME280;30542;47.928;2.138;2023-08-31T23:09:34;100199.94;;;22.12;56.46
44825;BME280;30542;47.928;2.138;2023-08-31T23:14:35;100193.81;;;22.06;56.34
44825;BME280;30542;47.928;2.138;2023-08-31T23:19:36;100207.44;;;22.09;56.75
44825;BME280;30542;47.928;2.138;2023-08-31T23:24:36;100206.41;;;22.11;56.70
44825;BME280;30542;47.928;2.138;2023-08-31T23:29:36;100205.56;;;22.10;56.81
44825;BME280;30542;47.928;2.138;2023-08-31T23:34:37;100206.41;;;22.11;56.66
44825;BME280;30542;47.928;2.138;2023-08-31T23:39:37;100207.19;;;22.11;56.45
44825;BME280;30542;47.928;2.138;2023-08-31T23:44:38;100200.22;;;22.10;56.55
44825;BME280;30542;47.928;2.138;2023-08-31T23:49:38;100194.84;;;22.10;56.57
44825;BME280;30542;47.928;2.138;2023-08-31T23:54:38;100194.84;;;22.10;56.43
44825;BME280;30542;47.928;2.138;2023-08-31T23:59:40;100176.13;;;22.05;56.68
